Aviation Digital Data Service (ADDS)

Output produced by METARs form (2242 UTC 01 February 2023)
found at http://www.aviationweather.gov/metar/data/
 
KVLD 012153Z 00000KT 10SM OVC075 26/17 A3015 RMK AO2 SLP216 T02560167
KVLD 011728Z 0118/0218 29006KT P6SM SCT020 
     FM020300 VRB03KT 6SM BR BKN025 
     FM020900 VRB03KT 1SM BR OVC004 
     FM021500 19004KT P6SM SCT007 BKN015